METAR AND TAF INFORMATION
METAR FOR SBPB
ADDS - METARS form results

(1149 UTC 19 May 2019)
Data provider http://aviationweather.gov/metar/data/
 
Forecast for: SBPB (PARNAIBA AIRPORT, BR)
Text: TAF SBPB 191000Z 1912/2012 07008KT 8000 SHRA SCT020 TX33/1918Z TN29/2 021Z
Forecast period: 1200 to 1900 UTC 19 May 2019
Forecast type: FROM: standard forecast or significant change
Winds: from the ENE (70 degrees) at 9 MPH (8 knots; 4.1 m/s)
Visibility: 5 miles (8 km)
Ceiling: at least 12,000 feet AGL
Clouds: scattered clouds at 2000 feet AGL
Weather: SHRA  (rain showers)
Text: BECMG 1919/1921 FEW017 FEW025TCU RMK PAY
Forecast period: 1900 UTC 19 May 2019 to 1200 UTC 20 May 2019
Forecast type: BECOMING: Conditions expected to become as follows by 2100 UTC 19 May 2019
Winds: from the ENE (70 degrees) at 9 MPH (8 knots; 4.1 m/s)
Visibility: 5 miles (8 km)
Ceiling: at least 12,000 feet AGL
Clouds: few clouds at 1700 feet AGL
few clouds at 2500 feet AGL
Weather: SHRA  (rain showers)

 AIRPORT MAP

 RUNWAY INFORMATION
Runway 9 Runway length 6890 ft Runway width 148 ft
Runway elevation 0 ft Runway displaced threshold 0 ft Runway heading 0
Runway 27 Runway length 6890 ft Runway width 148 ft
Runway elevation 0 ft Runway displaced threshold 0 ft Runway heading 0

 AIRPORT FREQUENCIES
Type AFIS Name RDO Frequency 126.6 MHZ

 AIRPORT NEAR NAVIGATION AIDS
Type NDB Name Parnaiba Frequency 365 KHZ



Powered by Virtual Airlines Manager [v2.6.2]